Domov               UVHVVR             MKGP            O straneh              
ZDRAVSTVENO VARSTVO RASTLIN
  MREŽA AGROMET. POSTAJ
 ► PROGNOSTIČNA OBVESTILA
AGROMETEOROLOŠKI PODATKI -
ARSO
OBVLADOVANJE TVEGANJ ZARADI
NEUGODNIH VREMENSKIH RAZMER
  ► NARAVNE NESREČE
  ► SUŠA/MOČA
  ► NAMAKANJE
  ► ŽLED (gozdarstvo)
KARTOGRAFSKI PRIKAZI
SPLETNE POVEZAVE
PROJEKTI IN PUBLIKACIJE

AGROMETEOROLOŠKA MREŽA: VREMENSKE POSTAJE IN FENOLOŠKA OPAZOVANJA

Pregled podatkov za lokacijo Gabernik-Rogaška, meteorološka postaja 37800

Pregled senzorjev na lokaciji

ID Ime Zadnja
vrednost
Datum in čas
zadnje
spremembe
(Lokalni čas)
Tip
senzorja
1828 Omočenost lista (U) 0 U 14.7.2020 04:30 A730WET
4946 Padavine (mm) 0 mm 14.7.2020 04:30 Generic 0.2 mm
1827 Relativna vlaga 2 m (% RH) 76.61 % RH 14.7.2020 04:30 50YA
1826 Temperatura 2 m (°C) 11.89 °C 14.7.2020 04:30 50YA

Pregled podatkov zadnjih 24 ur

Zap.
št.
Datum in čas
(Centralno
evropski čas)
Gabernik-Rogaška
Omočenost
lista
Padavine Relativna
vlaga
2
m
Temperatura
2
m
1 14.7.2020 04:30
2 14.7.2020 04:00
3 14.7.2020 03:30 0 0 76.6 11.9
4 14.7.2020 03:00 0 0 75 12.3
5 14.7.2020 02:30 0 0 76.8 12.3
6 14.7.2020 02:00 0 0 62.4 14.6
7 14.7.2020 01:30 0 0 59.6 14.9
8 14.7.2020 01:00 0 0 61.7 15
9 14.7.2020 00:30 0 0 53.9 16.2
10 14.7.2020 00:00 0 0 49.9 16.9
11 13.7.2020 23:30 0 0 50.8 17.1
12 13.7.2020 23:00 0 0 49.9 17.2
13 13.7.2020 22:30 0 0 51.1 17.2
14 13.7.2020 22:00 0 0 50.3 17.7
15 13.7.2020 21:30 0 0 50 17.8
16 13.7.2020 21:00 0 0 50.5 17.9
17 13.7.2020 20:30 0 0 51.5 17.9
18 13.7.2020 20:00 0 0 50.9 18.2
19 13.7.2020 19:30 0 0 49.8 19.1
20 13.7.2020 19:00 0 0 48.7 21.7
21 13.7.2020 18:30 0 0 46.7 22.8
22 13.7.2020 18:00 0 0 47.7 23.6
23 13.7.2020 17:30 0 0 48.1 23.7
24 13.7.2020 17:00 0 0 46.9 23.8
25 13.7.2020 16:30 0 0 50.2 24
26 13.7.2020 16:00 0 0 47.5 24.1
27 13.7.2020 15:30 0 0 52.9 22.4
28 13.7.2020 15:00 0 0 55.6 20.5
29 13.7.2020 14:30 0 0 52.7 22.7
30 13.7.2020 14:00 0 0 53 21.9
31 13.7.2020 13:30 0 0 53.9 21.5
32 13.7.2020 13:00 0 0 52 22
33 13.7.2020 12:30 0 0 51.2 21.6
34 13.7.2020 12:00 0 0 55.5 20.6
35 13.7.2020 11:30 0 0 52.9 21.1
36 13.7.2020 11:00 0 0 55 20.3
37 13.7.2020 10:30 0 0 62.9 18.7
38 13.7.2020 10:00 0 0 60 18
39 13.7.2020 09:30 0 0 62 17.1
40 13.7.2020 09:00 0 0 61.4 16.5
41 13.7.2020 08:30 0 0 61.5 16.1
42 13.7.2020 08:00 0 0 64.4 15.8
43 13.7.2020 07:30 0 0 62.4 15.4
44 13.7.2020 07:00 0 0 63 15
45 13.7.2020 06:30 0 0 63.2 14.8
46 13.7.2020 06:00 0 0 65.4 14.4
47 13.7.2020 05:30 0 0 65.6 14.3
48 13.7.2020 05:00 0 0 65.1 14.3
© 2011 Ministrstvo za kmetijstvo, gozdarstvo in prehrano. Vse pravice pridržane.